createdAt,value
2022-11-14T00:00:52.448Z,98.50
2022-11-14T00:03:38.909Z,103.37
2022-11-14T00:06:26.767Z,87.63
2022-11-14T00:09:13.187Z,103.00
2022-11-14T00:11:59.736Z,83.43
2022-11-14T00:14:46.301Z,95.30
2022-11-14T00:17:32.760Z,75.60
2022-11-14T00:20:19.549Z,90.80
2022-11-14T00:23:07.249Z,79.57
2022-11-14T00:25:53.893Z,77.63
2022-11-14T00:28:40.538Z,77.37
2022-11-14T00:31:27.011Z,72.93
2022-11-14T00:34:13.699Z,79.53
2022-11-14T00:37:00.348Z,82.00
2022-11-14T00:39:47.914Z,76.23
2022-11-14T00:42:34.897Z,85.17
2022-11-14T00:45:21.416Z,73.17
2022-11-14T00:48:08.047Z,70.77
2022-11-14T00:50:54.513Z,69.47
2022-11-14T00:53:41.134Z,73.67
2022-11-14T00:56:29.105Z,67.83
2022-11-14T00:59:15.433Z,70.47
2022-11-14T01:02:03.037Z,67.43
2022-11-14T01:04:49.208Z,65.33
2022-11-14T01:07:35.645Z,69.40
2022-11-14T01:10:22.577Z,68.03
2022-11-14T01:13:10.902Z,68.10
2022-11-14T01:16:01.614Z,67.30
2022-11-14T01:18:48.519Z,72.37
2022-11-14T01:21:35.083Z,67.37
2022-11-14T01:24:21.729Z,72.83
2022-11-14T01:27:08.117Z,63.53
2022-11-14T01:29:56.134Z,63.37
2022-11-14T01:32:42.697Z,57.43
2022-11-14T01:35:29.353Z,96.27
2022-11-14T01:38:16.678Z,72.67
2022-11-14T01:41:03.189Z,68.27
2022-11-14T01:43:50.399Z,71.20
2022-11-14T01:46:41.025Z,65.93
2022-11-14T01:49:39.186Z,64.97
2022-11-14T01:52:27.855Z,56.23
2022-11-14T01:55:14.428Z,73.50
2022-11-14T01:58:01.758Z,58.37
2022-11-14T02:00:48.136Z,57.40
2022-11-14T02:03:39.406Z,60.60
2022-11-14T02:06:30.007Z,57.50
2022-11-14T02:09:16.353Z,61.60
2022-11-14T02:12:04.865Z,60.73
2022-11-14T02:14:58.071Z,66.73
2022-11-14T02:17:45.577Z,118.90
2022-11-14T02:20:36.137Z,59.47
2022-11-14T02:23:29.630Z,59.10
2022-11-14T02:26:18.639Z,88.07
2022-11-14T02:29:07.452Z,55.17
2022-11-14T02:31:53.954Z,57.60
2022-11-14T02:34:40.549Z,58.33
2022-11-14T02:37:28.536Z,54.93
2022-11-14T02:40:14.961Z,61.23
2022-11-14T02:43:01.258Z,57.27
2022-11-14T02:45:47.730Z,62.03
2022-11-14T02:48:34.318Z,54.60
2022-11-14T02:51:20.943Z,62.07
2022-11-14T02:54:08.875Z,58.33
2022-11-14T02:56:55.408Z,63.97
2022-11-14T02:59:42.002Z,68.60
2022-11-14T03:02:28.595Z,56.87
2022-11-14T03:05:15.392Z,59.27
2022-11-14T03:08:01.621Z,64.63
2022-11-14T03:10:49.434Z,59.13
2022-11-14T03:13:36.720Z,59.00
2022-11-14T03:16:22.956Z,59.00
2022-11-14T03:19:09.111Z,59.30
2022-11-14T03:21:55.684Z,63.77
2022-11-14T03:24:42.298Z,60.10
2022-11-14T03:27:30.176Z,57.20
2022-11-14T03:30:16.920Z,59.73
2022-11-14T03:33:03.133Z,56.50
2022-11-14T03:35:50.620Z,63.97
2022-11-14T03:38:37.939Z,55.60
2022-11-14T03:41:24.777Z,55.73
2022-11-14T03:44:12.777Z,60.90
2022-11-14T03:46:59.350Z,58.80
2022-11-14T03:49:46.113Z,67.20
2022-11-14T03:52:32.427Z,57.80
2022-11-14T03:55:18.830Z,61.70
2022-11-14T03:58:06.107Z,58.20
2022-11-14T04:00:55.938Z,58.47
2022-11-14T04:03:42.785Z,60.73
2022-11-14T04:06:29.232Z,58.37
2022-11-14T04:09:15.900Z,68.47
2022-11-14T04:12:02.500Z,71.63
2022-11-14T04:14:49.028Z,71.37
2022-11-14T04:17:39.777Z,72.80
2022-11-14T04:20:26.660Z,56.43
2022-11-14T04:23:13.179Z,58.77
2022-11-14T04:25:59.663Z,71.93
2022-11-14T04:28:46.158Z,98.87
2022-11-14T04:31:32.536Z,67.47
2022-11-14T04:34:20.443Z,70.07
2022-11-14T04:37:07.439Z,59.33
2022-11-14T04:39:54.634Z,58.77
2022-11-14T04:42:41.418Z,61.57
2022-11-14T04:45:28.089Z,68.30
2022-11-14T04:48:14.774Z,56.93
2022-11-14T04:51:02.520Z,72.67
2022-11-14T04:53:49.067Z,62.27
2022-11-14T04:56:35.786Z,62.70
2022-11-14T04:59:22.409Z,55.07
2022-11-14T05:02:09.018Z,55.60
2022-11-14T05:04:55.382Z,60.53
2022-11-14T05:07:43.324Z,55.07
2022-11-14T05:10:29.949Z,71.10
2022-11-14T05:13:16.570Z,56.57
2022-11-14T05:16:02.848Z,58.00
2022-11-14T05:18:49.377Z,58.17
2022-11-14T05:21:36.074Z,61.97
2022-11-14T05:24:23.803Z,62.17
2022-11-14T05:27:10.606Z,66.53
2022-11-14T05:29:56.944Z,78.30
2022-11-14T05:32:43.398Z,93.20
2022-11-14T05:35:29.809Z,65.80
2022-11-14T05:38:16.484Z,64.90
2022-11-14T05:41:08.930Z,59.07
2022-11-14T05:43:55.243Z,79.80
2022-11-14T05:46:41.754Z,55.43
2022-11-14T05:49:28.470Z,61.37
2022-11-14T05:52:15.196Z,87.57
2022-11-14T05:55:01.672Z,59.83
2022-11-14T05:57:49.646Z,77.03
2022-11-14T06:00:42.419Z,79.33
2022-11-14T06:03:34.629Z,69.13
2022-11-14T06:06:22.657Z,65.20
2022-11-14T06:09:09.221Z,55.57
2022-11-14T06:11:55.733Z,83.97
2022-11-14T06:14:43.683Z,63.40
2022-11-14T06:17:30.223Z,53.53
2022-11-14T06:20:16.841Z,61.20
2022-11-14T06:23:03.537Z,58.07
2022-11-14T06:25:49.938Z,69.40
2022-11-14T06:28:36.554Z,58.77
2022-11-14T06:31:25.141Z,61.53
2022-11-14T06:34:13.117Z,87.20
2022-11-14T06:36:59.707Z,68.97
2022-11-14T06:39:46.106Z,58.70
2022-11-14T06:42:32.677Z,52.73
2022-11-14T06:45:19.223Z,66.57
2022-11-14T06:48:08.037Z,51.83
2022-11-14T06:50:55.130Z,67.80
2022-11-14T06:53:42.242Z,51.10
2022-11-14T06:56:28.479Z,53.90
2022-11-14T06:59:15.188Z,53.37
2022-11-14T07:02:01.231Z,54.67
2022-11-14T07:04:49.135Z,53.20
2022-11-14T07:07:35.688Z,56.87
2022-11-14T07:10:22.130Z,60.90
2022-11-14T07:13:09.696Z,51.90
2022-11-14T07:15:56.702Z,50.53
2022-11-14T07:18:42.873Z,59.30
2022-11-14T07:21:32.037Z,50.77
2022-11-14T07:24:18.476Z,65.13
2022-11-14T07:27:08.702Z,70.40
2022-11-14T07:29:54.997Z,66.93
2022-11-14T07:32:41.511Z,47.97
2022-11-14T07:35:28.309Z,49.93
2022-11-14T07:38:16.188Z,48.97
2022-11-14T07:41:04.483Z,62.47
2022-11-14T07:43:51.283Z,54.90
2022-11-14T07:46:37.647Z,49.80
2022-11-14T07:49:24.147Z,51.13
2022-11-14T07:52:10.452Z,49.00
2022-11-14T07:54:58.641Z,54.10
2022-11-14T07:57:49.009Z,49.30
2022-11-14T08:00:36.388Z,66.13
2022-11-14T08:03:23.183Z,44.43
2022-11-14T08:06:11.763Z,44.97
2022-11-14T08:08:58.345Z,71.83
2022-11-14T08:11:49.078Z,43.47
2022-11-14T08:14:35.868Z,43.57
2022-11-14T08:17:22.727Z,43.07
2022-11-14T08:20:10.797Z,49.33
2022-11-14T08:23:03.738Z,56.37
2022-11-14T08:25:50.355Z,55.30
2022-11-14T08:28:38.277Z,58.53
2022-11-14T08:31:25.101Z,70.13
2022-11-14T08:34:11.642Z,49.37
2022-11-14T08:36:58.467Z,48.43
2022-11-14T08:39:44.744Z,60.97
2022-11-14T08:42:31.400Z,47.43
2022-11-14T08:45:19.547Z,48.37
2022-11-14T08:48:06.450Z,57.57
2022-11-14T08:50:52.921Z,62.27
2022-11-14T08:53:39.503Z,48.53
2022-11-14T08:56:26.169Z,48.00
2022-11-14T08:59:12.725Z,56.23
2022-11-14T09:02:00.928Z,51.73
2022-11-14T09:04:47.212Z,46.60
2022-11-14T09:07:33.776Z,48.03
2022-11-14T09:10:20.398Z,46.27
2022-11-14T09:13:07.177Z,42.90
2022-11-14T09:15:53.782Z,42.47
2022-11-14T09:18:41.439Z,38.23
2022-11-14T09:21:27.868Z,36.47
2022-11-14T09:24:14.217Z,32.70
2022-11-14T09:27:00.653Z,33.77
2022-11-14T09:29:47.342Z,31.87
2022-11-14T09:32:33.796Z,49.93
2022-11-14T09:35:21.728Z,33.73
2022-11-14T09:38:09.967Z,32.03
2022-11-14T09:41:06.353Z,31.47
2022-11-14T09:44:20.748Z,32.20
2022-11-14T09:47:15.534Z,33.53
2022-11-14T09:50:08.740Z,31.33
2022-11-14T09:52:59.077Z,31.60
2022-11-14T09:55:45.196Z,32.63
2022-11-14T09:58:32.260Z,32.50
2022-11-14T10:01:32.204Z,41.13
2022-11-14T10:04:27.842Z,33.47
2022-11-14T10:07:28.200Z,33.77
2022-11-14T10:10:37.329Z,33.00
2022-11-14T10:13:41.022Z,31.50
2022-11-14T10:16:37.865Z,31.30
2022-11-14T10:19:32.785Z,30.30
2022-11-14T10:22:30.424Z,29.60
2022-11-14T10:25:27.887Z,28.97
2022-11-14T10:28:34.779Z,39.67
2022-11-14T10:31:36.625Z,28.80
2022-11-14T10:34:31.593Z,28.20
2022-11-14T10:37:23.764Z,28.53
2022-11-14T10:40:24.132Z,28.63
2022-11-14T10:43:21.993Z,28.73
2022-11-14T10:46:13.285Z,29.13
2022-11-14T10:49:01.017Z,29.63
2022-11-14T10:51:51.416Z,30.93
2022-11-14T10:54:42.949Z,30.63
2022-11-14T10:57:29.936Z,31.67
2022-11-14T11:00:22.800Z,32.00
2022-11-14T11:03:10.245Z,32.47
2022-11-14T11:05:57.773Z,30.83
2022-11-14T11:09:02.443Z,36.00
2022-11-14T11:11:58.230Z,34.17
2022-11-14T11:14:45.351Z,33.30
2022-11-14T11:17:37.307Z,38.73
2022-11-14T11:20:34.015Z,33.20
2022-11-14T11:23:25.233Z,32.43
2022-11-14T11:26:19.929Z,33.13
2022-11-14T11:29:15.935Z,34.00
2022-11-14T11:32:02.387Z,36.07
2022-11-14T11:34:52.327Z,35.10
2022-11-14T11:37:43.491Z,34.63
2022-11-14T11:40:31.390Z,35.53
2022-11-14T11:43:43.127Z,36.63
2022-11-14T11:46:36.106Z,39.03
2022-11-14T11:49:36.703Z,40.57
2022-11-14T11:52:33.163Z,40.33
2022-11-14T11:55:24.307Z,39.57
2022-11-14T11:58:17.257Z,40.07
2022-11-14T12:01:03.922Z,40.53
2022-11-14T12:03:53.558Z,39.33
2022-11-14T12:06:47.488Z,40.90
2022-11-14T12:10:09.453Z,40.70
2022-11-14T12:13:04.213Z,40.90
2022-11-14T12:16:02.667Z,40.07
2022-11-14T12:19:25.247Z,39.63
2022-11-14T12:22:25.483Z,41.23
2022-11-14T12:25:40.087Z,42.23
2022-11-14T12:28:38.426Z,43.20
2022-11-14T12:31:25.022Z,41.77
2022-11-14T12:34:27.807Z,43.20
2022-11-14T12:37:20.959Z,44.53
2022-11-14T12:40:19.594Z,43.83
2022-11-14T12:43:34.720Z,44.30
2022-11-14T12:46:22.904Z,46.20
2022-11-14T12:49:38.769Z,45.27
2022-11-14T12:52:45.794Z,45.47
2022-11-14T12:55:55.680Z,46.53
2022-11-14T12:59:20.625Z,46.90
2022-11-14T13:02:55.213Z,47.80
2022-11-14T13:05:55.660Z,47.20
2022-11-14T13:08:57.985Z,47.67
2022-11-14T13:12:03.633Z,45.90
2022-11-14T13:15:09.179Z,47.83
2022-11-14T13:18:23.214Z,46.77
2022-11-14T13:21:45.046Z,49.07
2022-11-14T13:25:31.919Z,48.03
2022-11-14T13:28:48.651Z,48.27
2022-11-14T13:31:48.504Z,51.20
2022-11-14T13:34:41.630Z,47.20
2022-11-14T13:37:45.813Z,48.93
2022-11-14T13:40:38.329Z,49.13
2022-11-14T13:43:38.084Z,49.10
2022-11-14T13:46:40.816Z,50.13
2022-11-14T13:49:43.185Z,50.80
2022-11-14T13:52:33.258Z,50.83
2022-11-14T13:55:22.895Z,51.13
2022-11-14T13:58:24.299Z,51.30
2022-11-14T14:01:24.405Z,52.37
2022-11-14T14:04:30.447Z,53.93
2022-11-14T14:07:26.635Z,53.30
2022-11-14T14:10:27.351Z,54.63
2022-11-14T14:13:29.499Z,56.37
2022-11-14T14:16:24.138Z,54.50
2022-11-14T14:19:25.522Z,57.17
2022-11-14T14:22:22.618Z,56.93
2022-11-14T14:25:19.765Z,58.77
2022-11-14T14:28:12.830Z,57.27
2022-11-14T14:31:03.271Z,57.53
2022-11-14T14:33:51.456Z,59.37
2022-11-14T14:36:50.686Z,61.87
2022-11-14T14:39:37.085Z,60.57
2022-11-14T14:42:23.603Z,62.27
2022-11-14T14:45:17.261Z,63.60
2022-11-14T14:48:07.809Z,67.60
2022-11-14T14:50:56.875Z,64.73
2022-11-14T14:53:53.680Z,63.13
2022-11-14T14:56:39.996Z,72.53
2022-11-14T14:59:28.324Z,64.00
2022-11-14T15:02:17.391Z,63.73
2022-11-14T15:05:04.676Z,65.63
2022-11-14T15:07:52.756Z,65.57
2022-11-14T15:10:41.511Z,68.40
2022-11-14T15:13:30.860Z,67.00
2022-11-14T15:16:17.615Z,71.60
2022-11-14T15:19:05.160Z,71.13
2022-11-14T15:22:04.023Z,70.07
2022-11-14T15:25:19.184Z,70.90
2022-11-14T15:28:20.665Z,72.33
2022-11-14T15:31:07.888Z,71.80
2022-11-14T15:34:07.100Z,70.20
2022-11-14T15:37:23.467Z,71.47
2022-11-14T15:40:19.512Z,72.23
2022-11-14T15:43:38.248Z,72.73
2022-11-14T15:46:42.367Z,71.10
2022-11-14T15:49:29.239Z,71.37
2022-11-14T15:52:22.204Z,72.73
2022-11-14T15:55:15.229Z,73.67
2022-11-14T16:01:17.341Z,72.57
2022-11-14T16:04:04.273Z,71.93
2022-11-14T16:06:50.826Z,72.67
2022-11-14T16:09:37.399Z,69.60
2022-11-14T16:12:24.038Z,68.97
2022-11-14T16:15:11.175Z,72.87
2022-11-14T16:17:59.631Z,72.00
2022-11-14T16:20:46.054Z,73.90
2022-11-14T16:23:33.034Z,73.03
2022-11-14T16:26:19.671Z,76.03
2022-11-14T16:29:06.271Z,77.13
2022-11-14T16:31:52.932Z,75.80
2022-11-14T16:34:40.794Z,77.80
2022-11-14T16:37:27.436Z,76.23
2022-11-14T16:40:19.408Z,78.00
2022-11-14T16:43:05.922Z,78.83
2022-11-14T16:45:52.117Z,78.27
2022-11-14T16:48:38.552Z,79.27
2022-11-14T16:51:47.160Z,78.43
2022-11-14T16:54:34.279Z,78.30
2022-11-14T16:57:21.040Z,79.27
2022-11-14T17:00:10.763Z,79.43
2022-11-14T17:02:57.389Z,81.33
2022-11-14T17:05:44.830Z,82.43
2022-11-14T17:08:32.974Z,82.67
2022-11-14T17:11:19.402Z,82.43
2022-11-14T17:14:06.200Z,82.90
2022-11-14T17:16:52.482Z,84.83
2022-11-14T17:19:45.635Z,87.63
2022-11-14T17:22:32.172Z,85.93
2022-11-14T17:25:20.214Z,87.07
2022-11-14T17:28:06.714Z,86.23
2022-11-14T17:30:53.290Z,82.03
2022-11-14T17:33:39.837Z,80.53
2022-11-14T17:36:28.218Z,82.27
2022-11-14T17:39:14.419Z,81.63
2022-11-14T17:42:02.383Z,81.40
2022-11-14T17:44:48.952Z,83.97
2022-11-14T17:47:35.428Z,83.70
2022-11-14T17:50:22.105Z,84.90
2022-11-14T17:53:09.151Z,85.60
2022-11-14T17:55:56.191Z,88.80
2022-11-14T17:58:45.061Z,80.60
2022-11-14T18:01:32.048Z,79.83
2022-11-14T18:04:18.879Z,82.70
2022-11-14T18:07:05.665Z,81.73
2022-11-14T18:09:52.181Z,78.80
2022-11-14T18:12:38.742Z,81.47
2022-11-14T18:15:28.169Z,81.47
2022-11-14T18:18:15.057Z,82.03
2022-11-14T18:21:07.472Z,78.23
2022-11-14T18:23:54.982Z,80.07
2022-11-14T18:26:41.687Z,82.00
2022-11-14T18:29:28.517Z,81.40
2022-11-14T18:32:16.543Z,79.90
2022-11-14T18:35:03.025Z,82.57
2022-11-14T18:37:49.545Z,83.00
2022-11-14T18:40:36.211Z,87.00
2022-11-14T18:43:22.805Z,85.77
2022-11-14T18:46:10.697Z,85.43
2022-11-14T18:48:59.187Z,89.57
2022-11-14T18:51:45.605Z,87.13
2022-11-14T18:54:32.691Z,88.47
2022-11-14T18:57:18.890Z,88.73
2022-11-14T19:00:06.332Z,89.13
2022-11-14T19:02:55.636Z,87.87
2022-11-14T19:05:43.837Z,89.13
2022-11-14T19:08:30.139Z,90.27
2022-11-14T19:11:36.347Z,108.83
2022-11-14T19:14:22.951Z,89.13
2022-11-14T19:17:09.753Z,88.33
2022-11-14T19:19:56.018Z,91.83
2022-11-14T19:22:45.185Z,130.47
2022-11-14T19:25:36.759Z,88.83
2022-11-14T19:28:25.686Z,103.43
2022-11-14T19:31:11.884Z,126.03
2022-11-14T19:33:58.387Z,98.97
2022-11-14T19:36:59.552Z,89.53
2022-11-14T19:39:52.409Z,86.63
2022-11-14T19:42:39.059Z,80.07
2022-11-14T19:45:25.619Z,81.30
2022-11-14T19:48:12.396Z,87.53
2022-11-14T19:51:07.805Z,78.43
2022-11-14T19:53:55.362Z,78.93
2022-11-14T19:56:43.167Z,76.83
2022-11-14T19:59:29.683Z,95.77
2022-11-14T20:02:16.276Z,85.10
2022-11-14T20:05:02.645Z,79.67
2022-11-14T20:07:48.971Z,78.17
2022-11-14T20:10:47.737Z,83.03
2022-11-14T20:13:38.298Z,78.40
2022-11-14T20:16:28.000Z,80.47
2022-11-14T20:19:14.796Z,97.67
2022-11-14T20:22:00.968Z,81.60
2022-11-14T20:24:47.447Z,81.80
2022-11-14T20:27:34.036Z,78.93
2022-11-14T20:30:22.149Z,79.50
2022-11-14T20:33:09.529Z,78.87
2022-11-14T20:35:56.621Z,79.93
2022-11-14T20:38:44.295Z,77.80
2022-11-14T20:41:30.668Z,75.77
2022-11-14T20:44:18.962Z,74.17
2022-11-14T20:47:10.798Z,76.90
2022-11-14T20:49:57.533Z,92.93
2022-11-14T20:52:45.866Z,71.77
2022-11-14T20:55:32.376Z,75.23
2022-11-14T20:58:19.051Z,80.07
2022-11-14T21:01:05.805Z,79.30
2022-11-14T21:03:53.861Z,74.47
2022-11-14T21:06:40.239Z,71.13
2022-11-14T21:09:26.666Z,71.40
2022-11-14T21:12:13.043Z,74.30
2022-11-14T21:14:59.502Z,73.67
2022-11-14T21:17:46.155Z,71.70
2022-11-14T21:20:34.199Z,77.13
2022-11-14T21:23:20.571Z,77.17
2022-11-14T21:26:09.377Z,69.07
2022-11-14T21:28:57.918Z,77.23
2022-11-14T21:31:47.261Z,108.07
2022-11-14T21:34:34.251Z,72.80
2022-11-14T21:37:22.304Z,70.87
2022-11-14T21:40:10.032Z,88.27
2022-11-14T21:42:56.479Z,70.73
2022-11-14T21:45:43.159Z,77.20
2022-11-14T21:48:31.773Z,92.07
2022-11-14T21:51:20.113Z,90.57
2022-11-14T21:54:08.503Z,103.90
2022-11-14T21:56:54.820Z,68.03
2022-11-14T21:59:41.332Z,72.70
2022-11-14T22:02:45.558Z,111.43
2022-11-14T22:05:31.906Z,79.63
2022-11-14T22:08:18.528Z,97.20
2022-11-14T22:11:06.544Z,69.27
2022-11-14T22:13:53.172Z,74.43
2022-11-14T22:16:39.899Z,67.33
2022-11-14T22:19:26.370Z,72.53
2022-11-14T22:22:12.850Z,72.67
2022-11-14T22:24:59.728Z,70.03
2022-11-14T22:27:47.665Z,132.00
2022-11-14T22:30:34.015Z,66.63
2022-11-14T22:33:20.661Z,64.83
2022-11-14T22:36:10.413Z,88.40
2022-11-14T22:38:57.957Z,64.07
2022-11-14T22:41:44.223Z,72.00
2022-11-14T22:44:32.369Z,84.87
2022-11-14T22:47:18.927Z,83.67
2022-11-14T22:50:06.369Z,68.00
2022-11-14T22:52:53.067Z,64.90
2022-11-14T22:55:47.581Z,73.67
2022-11-14T22:58:35.834Z,66.90
2022-11-14T23:01:26.158Z,83.20
2022-11-14T23:04:12.304Z,95.13
2022-11-14T23:06:58.848Z,64.67
2022-11-14T23:09:45.435Z,73.73
2022-11-14T23:12:31.781Z,73.07
2022-11-14T23:15:18.389Z,61.30
2022-11-14T23:18:07.580Z,81.27
2022-11-14T23:20:54.018Z,63.60
2022-11-14T23:23:40.734Z,87.57
2022-11-14T23:26:29.193Z,88.60
2022-11-14T23:29:15.792Z,70.90
2022-11-14T23:32:02.322Z,64.77
2022-11-14T23:34:49.974Z,75.47
2022-11-14T23:37:36.616Z,59.57
2022-11-14T23:40:23.171Z,85.83
2022-11-14T23:43:09.663Z,76.93
2022-11-14T23:45:56.515Z,70.90
2022-11-14T23:48:42.790Z,59.50
2022-11-14T23:51:30.772Z,84.10
2022-11-14T23:54:16.975Z,79.13
2022-11-14T23:57:04.717Z,61.13
2022-11-14T23:59:51.486Z,70.37
